createdAt,value
2023-04-28T00:00:42.539Z,41.89
2023-04-28T00:01:42.530Z,43.51
2023-04-28T00:02:42.562Z,44.63
2023-04-28T00:03:42.589Z,43.99
2023-04-28T00:04:42.652Z,48.66
2023-04-28T00:05:42.494Z,42.70
2023-04-28T00:06:42.478Z,41.41
2023-04-28T00:07:42.472Z,41.89
2023-04-28T00:08:42.453Z,41.41
2023-04-28T00:09:42.440Z,43.18
2023-04-28T00:10:42.431Z,43.51
2023-04-28T00:11:42.428Z,42.06
2023-04-28T00:12:42.423Z,40.44
2023-04-28T00:13:42.402Z,43.02
2023-04-28T00:14:42.391Z,45.76
2023-04-28T00:15:42.384Z,43.99
2023-04-28T00:16:42.609Z,41.09
2023-04-28T00:17:42.516Z,43.34
2023-04-28T00:18:42.354Z,63.65
2023-04-28T00:19:42.340Z,43.34
2023-04-28T00:20:42.333Z,43.34
2023-04-28T00:21:42.333Z,46.57
2023-04-28T00:22:42.325Z,41.57
2023-04-28T00:23:42.289Z,43.34
2023-04-28T00:24:42.287Z,46.25
2023-04-28T00:25:42.286Z,40.77
2023-04-28T00:26:42.260Z,40.12
2023-04-28T00:27:42.270Z,38.99
2023-04-28T00:28:42.255Z,41.09
2023-04-28T00:29:42.235Z,42.70
2023-04-28T00:30:42.233Z,42.38
2023-04-28T00:31:42.267Z,39.48
2023-04-28T00:32:42.258Z,39.96
2023-04-28T00:33:42.192Z,42.86
2023-04-28T00:34:42.190Z,41.89
2023-04-28T00:35:42.189Z,41.25
2023-04-28T00:36:42.177Z,41.25
2023-04-28T00:37:42.180Z,41.57
2023-04-28T00:38:42.141Z,43.83
2023-04-28T00:39:42.126Z,41.57
2023-04-28T00:40:42.128Z,40.93
2023-04-28T00:41:42.117Z,45.12
2023-04-28T00:42:42.117Z,61.23
2023-04-28T00:43:42.092Z,40.61
2023-04-28T00:44:42.091Z,40.77
2023-04-28T00:45:42.148Z,43.67
2023-04-28T00:46:42.085Z,43.18
2023-04-28T00:47:42.148Z,42.06
2023-04-28T00:48:42.079Z,40.12
2023-04-28T00:49:42.040Z,40.28
2023-04-28T00:50:42.026Z,40.44
2023-04-28T00:51:42.024Z,40.28
2023-04-28T00:52:42.013Z,39.96
2023-04-28T00:53:41.990Z,43.83
2023-04-28T00:54:41.990Z,41.25
2023-04-28T00:55:41.982Z,43.51
2023-04-28T00:56:41.973Z,43.67
2023-04-28T00:57:41.968Z,41.89
2023-04-28T00:58:41.950Z,62.04
2023-04-28T00:59:41.938Z,42.70
2023-04-28T01:00:41.920Z,43.34
2023-04-28T01:01:41.944Z,60.26
2023-04-28T01:02:42.005Z,45.28
2023-04-28T01:03:41.976Z,42.22
2023-04-28T01:04:41.946Z,42.70
2023-04-28T01:05:41.870Z,40.44
2023-04-28T01:06:41.882Z,40.44
2023-04-28T01:07:41.882Z,40.12
2023-04-28T01:08:41.845Z,40.61
2023-04-28T01:09:41.842Z,45.76
2023-04-28T01:10:41.835Z,56.07
2023-04-28T01:11:41.824Z,59.46
2023-04-28T01:12:41.825Z,44.47
2023-04-28T01:13:41.798Z,45.28
2023-04-28T01:14:41.785Z,40.44
2023-04-28T01:15:41.775Z,42.70
2023-04-28T01:16:41.810Z,41.25
2023-04-28T01:17:41.834Z,42.38
2023-04-28T01:18:41.744Z,43.83
2023-04-28T01:19:41.736Z,59.46
2023-04-28T01:20:41.733Z,42.54
2023-04-28T01:21:41.720Z,40.93
2023-04-28T01:22:41.705Z,43.34
2023-04-28T01:23:41.712Z,42.38
2023-04-28T01:24:41.690Z,40.93
2023-04-28T01:25:41.674Z,42.70
2023-04-28T01:26:41.670Z,43.18
2023-04-28T01:27:41.655Z,43.83
2023-04-28T01:28:41.666Z,41.57
2023-04-28T01:29:41.643Z,41.89
2023-04-28T01:30:41.625Z,42.06
2023-04-28T01:31:41.634Z,43.83
2023-04-28T01:32:41.681Z,58.65
2023-04-28T01:33:41.603Z,46.89
2023-04-28T01:34:41.594Z,44.63
2023-04-28T01:35:41.568Z,44.96
2023-04-28T01:36:42.579Z,58.81
2023-04-28T01:37:41.566Z,60.26
2023-04-28T01:38:41.548Z,42.54
2023-04-28T01:39:41.545Z,55.75
2023-04-28T01:40:41.525Z,44.31
2023-04-28T01:41:41.523Z,41.57
2023-04-28T01:42:41.524Z,41.41
2023-04-28T01:43:41.492Z,41.41
2023-04-28T01:44:41.508Z,40.93
2023-04-28T01:45:41.507Z,40.77
2023-04-28T01:46:41.538Z,43.67
2023-04-28T01:47:41.530Z,40.77
2023-04-28T01:48:41.451Z,40.44
2023-04-28T01:49:41.433Z,42.22
2023-04-28T01:50:41.431Z,48.50
2023-04-28T01:51:41.425Z,61.23
2023-04-28T01:52:41.419Z,45.76
2023-04-28T01:53:41.398Z,42.06
2023-04-28T01:54:41.401Z,42.38
2023-04-28T01:55:41.378Z,44.15
2023-04-28T01:56:41.376Z,60.91
2023-04-28T01:57:41.367Z,59.30
2023-04-28T01:58:41.351Z,55.91
2023-04-28T01:59:41.343Z,53.66
2023-04-28T02:00:41.334Z,53.17
2023-04-28T02:01:41.405Z,55.27
2023-04-28T02:02:41.376Z,53.17
2023-04-28T02:03:41.452Z,51.24
2023-04-28T02:04:41.346Z,49.31
2023-04-28T02:05:41.283Z,49.15
2023-04-28T02:06:41.269Z,46.73
2023-04-28T02:07:41.278Z,46.25
2023-04-28T02:08:41.258Z,46.57
2023-04-28T02:09:41.244Z,59.78
2023-04-28T02:10:41.229Z,48.50
2023-04-28T02:11:41.229Z,41.41
2023-04-28T02:12:41.242Z,41.41
2023-04-28T02:13:41.200Z,41.09
2023-04-28T02:14:41.192Z,41.41
2023-04-28T02:15:41.220Z,43.18
2023-04-28T02:16:41.182Z,42.86
2023-04-28T02:17:41.221Z,42.54
2023-04-28T02:18:41.161Z,44.47
2023-04-28T02:19:41.128Z,43.99
2023-04-28T02:20:41.127Z,43.99
2023-04-28T02:21:41.116Z,43.83
2023-04-28T02:22:41.106Z,41.89
2023-04-28T02:23:41.130Z,43.18
2023-04-28T02:24:41.101Z,45.76
2023-04-28T02:25:41.081Z,46.25
2023-04-28T02:26:41.062Z,46.89
2023-04-28T02:27:41.055Z,47.86
2023-04-28T02:28:41.075Z,47.21
2023-04-28T02:29:41.039Z,45.44
2023-04-28T02:30:41.037Z,45.28
2023-04-28T02:31:41.049Z,55.11
2023-04-28T02:32:41.030Z,45.76
2023-04-28T02:33:41.015Z,61.55
2023-04-28T02:34:40.987Z,51.88
2023-04-28T02:35:40.974Z,55.59
2023-04-28T02:36:40.976Z,57.52
2023-04-28T02:37:40.962Z,52.53
2023-04-28T02:38:40.958Z,49.31
2023-04-28T02:39:40.943Z,50.43
2023-04-28T02:40:40.932Z,55.43
2023-04-28T02:41:40.928Z,58.81
2023-04-28T02:42:40.909Z,56.07
2023-04-28T02:43:40.924Z,57.04
2023-04-28T02:44:40.897Z,52.05
2023-04-28T02:45:40.879Z,52.21
2023-04-28T02:46:40.912Z,50.11
2023-04-28T02:47:40.869Z,47.86
2023-04-28T02:48:40.864Z,46.73
2023-04-28T02:49:40.847Z,48.50
2023-04-28T02:50:40.828Z,47.05
2023-04-28T02:51:40.851Z,49.31
2023-04-28T02:52:40.808Z,47.86
2023-04-28T02:53:40.816Z,51.72
2023-04-28T02:54:40.787Z,60.10
2023-04-28T02:55:40.790Z,59.78
2023-04-28T02:56:40.774Z,58.33
2023-04-28T02:57:40.778Z,52.85
2023-04-28T02:58:40.764Z,53.33
2023-04-28T02:59:40.734Z,60.42
2023-04-28T03:00:40.729Z,55.11
2023-04-28T03:01:40.828Z,55.59
2023-04-28T03:02:40.761Z,56.24
2023-04-28T03:03:40.914Z,54.79
2023-04-28T03:04:40.721Z,56.72
2023-04-28T03:05:40.697Z,60.10
2023-04-28T03:06:40.667Z,61.55
2023-04-28T03:07:40.667Z,64.61
2023-04-28T03:08:40.667Z,62.84
2023-04-28T03:09:42.244Z,63.00
2023-04-28T03:10:41.643Z,62.36
2023-04-28T03:11:40.636Z,62.04
2023-04-28T03:12:40.631Z,62.04
2023-04-28T03:13:40.620Z,57.85
2023-04-28T03:14:40.593Z,63.16
2023-04-28T03:15:40.592Z,65.58
2023-04-28T03:16:40.585Z,62.20
2023-04-28T03:17:40.590Z,63.33
2023-04-28T03:18:40.563Z,61.87
2023-04-28T03:19:40.554Z,61.23
2023-04-28T03:20:40.535Z,67.19
2023-04-28T03:21:40.533Z,67.68
2023-04-28T03:22:40.516Z,65.10
2023-04-28T03:23:40.535Z,70.90
2023-04-28T03:24:40.510Z,70.25
2023-04-28T03:25:40.491Z,68.80
2023-04-28T03:26:40.477Z,62.20
2023-04-28T03:27:40.476Z,66.71
2023-04-28T03:28:40.470Z,68.48
2023-04-28T03:29:40.453Z,75.41
2023-04-28T03:30:40.437Z,68.80
2023-04-28T03:31:40.456Z,69.13
2023-04-28T03:32:40.475Z,68.48
2023-04-28T03:33:40.403Z,69.13
2023-04-28T03:34:40.414Z,69.45
2023-04-28T03:35:40.402Z,66.39
2023-04-28T03:36:40.379Z,69.13
2023-04-28T03:37:40.377Z,68.16
2023-04-28T03:38:40.393Z,67.84
2023-04-28T03:39:40.369Z,68.64
2023-04-28T03:40:40.360Z,67.35
2023-04-28T03:41:40.336Z,67.84
2023-04-28T03:42:40.329Z,60.75
2023-04-28T03:43:40.324Z,60.75
2023-04-28T03:44:40.325Z,62.04
2023-04-28T03:45:40.317Z,60.75
2023-04-28T03:46:40.274Z,68.00
2023-04-28T03:47:40.311Z,68.16
2023-04-28T03:48:40.275Z,68.32
2023-04-28T03:49:40.269Z,68.64
2023-04-28T03:50:40.241Z,68.00
2023-04-28T03:51:40.249Z,62.20
2023-04-28T03:52:40.218Z,61.23
2023-04-28T03:53:40.209Z,63.33
2023-04-28T03:54:40.232Z,62.20
2023-04-28T03:55:40.215Z,65.90
2023-04-28T03:56:40.189Z,64.29
2023-04-28T03:57:40.163Z,61.71
2023-04-28T03:58:40.170Z,61.55
2023-04-28T03:59:40.183Z,66.06
2023-04-28T04:00:40.146Z,67.68
2023-04-28T04:01:40.131Z,61.39
2023-04-28T04:02:40.331Z,60.59
2023-04-28T04:03:40.281Z,61.07
2023-04-28T04:04:40.289Z,62.36
2023-04-28T04:05:40.141Z,61.23
2023-04-28T04:06:40.100Z,61.71
2023-04-28T04:07:40.071Z,74.28
2023-04-28T04:08:40.065Z,68.64
2023-04-28T04:09:40.077Z,63.33
2023-04-28T04:10:40.036Z,61.07
2023-04-28T04:11:40.036Z,59.78
2023-04-28T04:12:40.035Z,60.26
2023-04-28T04:13:40.028Z,62.68
2023-04-28T04:14:40.009Z,62.04
2023-04-28T04:15:40.015Z,63.00
2023-04-28T04:16:39.973Z,62.04
2023-04-28T04:17:39.976Z,59.78
2023-04-28T04:18:39.963Z,67.35
2023-04-28T04:19:39.958Z,66.55
2023-04-28T04:20:39.930Z,63.33
2023-04-28T04:21:39.950Z,62.04
2023-04-28T04:22:39.929Z,62.52
2023-04-28T04:23:39.920Z,60.91
2023-04-28T04:24:39.978Z,63.81
2023-04-28T04:25:39.898Z,64.45
2023-04-28T04:26:39.886Z,59.78
2023-04-28T04:27:39.865Z,63.49
2023-04-28T04:28:39.870Z,65.42
2023-04-28T04:29:39.885Z,61.71
2023-04-28T04:30:39.847Z,60.10
2023-04-28T04:31:39.948Z,57.04
2023-04-28T04:32:39.873Z,61.71
2023-04-28T04:33:39.813Z,59.94
2023-04-28T04:34:39.831Z,62.36
2023-04-28T04:35:39.796Z,66.39
2023-04-28T04:36:39.806Z,65.42
2023-04-28T04:37:39.783Z,61.55
2023-04-28T04:38:39.762Z,65.90
2023-04-28T04:39:39.775Z,67.19
2023-04-28T04:40:39.762Z,63.33
2023-04-28T04:41:39.745Z,65.58
2023-04-28T04:42:39.728Z,68.16
2023-04-28T04:43:39.717Z,67.19
2023-04-28T04:44:39.712Z,63.81
2023-04-28T04:45:39.697Z,65.42
2023-04-28T04:46:39.689Z,67.19
2023-04-28T04:47:39.700Z,66.87
2023-04-28T04:48:39.645Z,66.06
2023-04-28T04:49:39.665Z,64.94
2023-04-28T04:50:39.635Z,63.33
2023-04-28T04:51:39.627Z,63.65
2023-04-28T04:52:39.613Z,66.23
2023-04-28T04:53:39.627Z,68.80
2023-04-28T04:54:39.601Z,66.87
2023-04-28T04:56:18.619Z,66.71
2023-04-28T04:56:40.593Z,66.87
2023-04-28T04:57:39.776Z,66.55
2023-04-28T04:58:39.661Z,65.26
2023-04-28T04:59:39.584Z,67.84
2023-04-28T05:00:39.584Z,66.71
2023-04-28T05:01:39.618Z,69.13
2023-04-28T05:02:39.567Z,66.23
2023-04-28T05:03:40.743Z,67.03
2023-04-28T05:04:39.622Z,63.65
2023-04-28T05:05:39.526Z,69.61
2023-04-28T05:06:39.528Z,68.16
2023-04-28T05:07:39.538Z,67.68
2023-04-28T05:08:39.532Z,69.61
2023-04-28T05:09:39.518Z,70.09
2023-04-28T05:10:39.480Z,66.23
2023-04-28T05:11:39.490Z,63.33
2023-04-28T05:12:39.476Z,66.55
2023-04-28T05:13:39.475Z,62.04
2023-04-28T05:14:39.440Z,62.20
2023-04-28T05:15:40.476Z,62.84
2023-04-28T05:16:39.483Z,67.68
2023-04-28T05:17:39.450Z,66.06
2023-04-28T05:18:39.457Z,64.61
2023-04-28T05:19:39.387Z,64.78
2023-04-28T05:20:39.397Z,66.71
2023-04-28T05:21:39.357Z,63.16
2023-04-28T05:22:39.432Z,66.55
2023-04-28T05:23:39.408Z,65.26
2023-04-28T05:24:39.351Z,66.55
2023-04-28T05:25:39.400Z,63.16
2023-04-28T05:26:39.355Z,61.23
2023-04-28T05:27:39.375Z,61.39
2023-04-28T05:28:39.328Z,61.87
2023-04-28T05:29:39.310Z,60.75
2023-04-28T05:30:39.297Z,63.65
2023-04-28T05:31:39.406Z,64.61
2023-04-28T05:32:39.318Z,61.87
2023-04-28T05:33:39.309Z,61.87
2023-04-28T05:34:40.084Z,65.26
2023-04-28T05:35:39.348Z,63.65
2023-04-28T05:36:39.235Z,61.23
2023-04-28T05:37:39.220Z,64.29
2023-04-28T05:38:39.280Z,66.87
2023-04-28T05:39:39.248Z,68.96
2023-04-28T05:40:39.256Z,65.58
2023-04-28T05:41:39.229Z,61.55
2023-04-28T05:42:39.202Z,66.23
2023-04-28T05:43:39.166Z,60.91
2023-04-28T05:44:40.171Z,65.26
2023-04-28T05:45:39.187Z,64.61
2023-04-28T05:46:39.157Z,61.23
2023-04-28T05:47:39.146Z,64.94
2023-04-28T05:48:39.138Z,65.90
2023-04-28T05:49:39.156Z,64.13
2023-04-28T05:50:39.301Z,60.75
2023-04-28T05:51:39.098Z,68.96
2023-04-28T05:52:39.124Z,66.06
2023-04-28T05:53:39.069Z,62.20
2023-04-28T05:54:39.080Z,63.81
2023-04-28T05:55:39.078Z,61.71
2023-04-28T05:56:39.113Z,62.20
2023-04-28T05:57:49.844Z,61.23
2023-04-28T05:58:41.035Z,64.78
2023-04-28T05:59:39.000Z,66.87
2023-04-28T06:00:39.012Z,68.96
2023-04-28T06:01:39.001Z,66.06
2023-04-28T06:02:39.127Z,64.45
2023-04-28T06:03:39.151Z,60.59
2023-04-28T06:04:41.255Z,67.84
2023-04-28T06:05:39.171Z,59.46
2023-04-28T06:06:38.971Z,60.75
2023-04-28T06:07:38.953Z,72.51
2023-04-28T06:08:38.923Z,65.58
2023-04-28T06:09:38.881Z,64.78
2023-04-28T06:10:38.910Z,65.10
2023-04-28T06:11:38.870Z,61.23
2023-04-28T06:12:38.936Z,61.39
2023-04-28T06:13:39.112Z,63.49
2023-04-28T06:14:38.859Z,58.17
2023-04-28T06:15:38.904Z,59.46
2023-04-28T06:16:38.860Z,60.42
2023-04-28T06:17:38.830Z,62.04
2023-04-28T06:18:39.677Z,63.81
2023-04-28T06:19:38.822Z,66.71
2023-04-28T06:20:38.795Z,63.97
2023-04-28T06:21:38.788Z,59.14
2023-04-28T06:22:40.651Z,62.84
2023-04-28T06:23:39.540Z,64.61
2023-04-28T06:24:38.812Z,59.78
2023-04-28T06:25:39.548Z,63.81
2023-04-28T06:26:38.764Z,67.68
2023-04-28T06:27:38.724Z,63.49
2023-04-28T06:28:39.776Z,60.75
2023-04-28T06:29:38.760Z,61.23
2023-04-28T06:30:38.736Z,61.87
2023-04-28T06:31:38.772Z,63.49
2023-04-28T06:32:38.685Z,62.84
2023-04-28T06:33:38.681Z,68.16
2023-04-28T06:34:38.649Z,67.84
2023-04-28T06:35:38.627Z,65.58
2023-04-28T06:36:38.630Z,62.84
2023-04-28T06:37:38.620Z,64.45
2023-04-28T06:38:38.608Z,69.61
2023-04-28T06:39:38.598Z,61.55
2023-04-28T06:40:38.604Z,66.55
2023-04-28T06:41:38.600Z,65.90
2023-04-28T06:42:38.584Z,66.71
2023-04-28T06:43:38.604Z,65.10
2023-04-28T06:44:38.607Z,68.16
2023-04-28T06:45:42.330Z,66.71
2023-04-28T06:46:38.817Z,65.90
2023-04-28T06:47:38.607Z,67.68
2023-04-28T06:48:38.536Z,64.45
2023-04-28T06:49:38.608Z,68.96
2023-04-28T06:50:38.547Z,61.55
2023-04-28T06:51:38.547Z,62.84
2023-04-28T06:52:39.775Z,64.94
2023-04-28T06:53:39.533Z,61.71
2023-04-28T06:54:38.532Z,65.58
2023-04-28T06:55:38.494Z,66.06
2023-04-28T06:56:38.466Z,64.29
2023-04-28T06:57:38.572Z,62.52
2023-04-28T06:58:38.428Z,64.61
2023-04-28T06:59:39.247Z,65.90
2023-04-28T07:00:38.452Z,64.94
2023-04-28T07:01:38.524Z,65.10
2023-04-28T07:02:38.579Z,66.23
2023-04-28T07:03:38.534Z,70.25
2023-04-28T07:04:38.376Z,60.26
2023-04-28T07:05:38.370Z,60.91
2023-04-28T07:06:38.327Z,55.59
2023-04-28T07:07:38.354Z,67.19
2023-04-28T07:08:38.336Z,63.33
2023-04-28T07:09:38.398Z,65.58
2023-04-28T07:10:38.601Z,63.16
2023-04-28T07:11:38.391Z,56.24
2023-04-28T07:12:38.356Z,55.91
2023-04-28T07:13:38.333Z,64.29
2023-04-28T07:14:38.295Z,60.10
2023-04-28T07:15:38.363Z,61.87
2023-04-28T07:16:38.603Z,66.39
2023-04-28T07:17:38.335Z,67.51
2023-04-28T07:18:38.303Z,57.85
2023-04-28T07:19:38.209Z,62.36
2023-04-28T07:20:38.191Z,64.29
2023-04-28T07:21:38.187Z,65.26
2023-04-28T07:22:38.193Z,69.93
2023-04-28T07:23:38.795Z,68.64
2023-04-28T07:24:38.148Z,64.13
2023-04-28T07:25:44.768Z,64.29
2023-04-28T07:26:38.130Z,60.75
2023-04-28T07:27:38.179Z,60.75
2023-04-28T07:28:38.207Z,62.20
2023-04-28T07:29:38.287Z,69.13
2023-04-28T07:30:38.147Z,64.29
2023-04-28T07:31:38.146Z,66.71
2023-04-28T07:32:38.193Z,64.61
2023-04-28T07:33:38.685Z,66.55
2023-04-28T07:34:38.045Z,62.68
2023-04-28T07:35:38.053Z,64.29
2023-04-28T07:36:38.117Z,65.10
2023-04-28T07:37:38.842Z,65.10
2023-04-28T07:38:38.049Z,67.68
2023-04-28T07:39:38.006Z,67.19
2023-04-28T07:40:37.976Z,67.35
2023-04-28T07:41:38.622Z,71.38
2023-04-28T07:42:38.071Z,67.19
2023-04-28T07:43:37.985Z,70.58
2023-04-28T07:44:40.026Z,71.22
2023-04-28T07:45:37.984Z,68.96
2023-04-28T07:46:38.090Z,68.64
2023-04-28T07:47:38.002Z,68.16
2023-04-28T07:48:37.924Z,65.58
2023-04-28T07:49:37.920Z,63.16
2023-04-28T07:50:37.881Z,62.68
2023-04-28T07:51:37.893Z,70.09
2023-04-28T07:52:37.875Z,67.68
2023-04-28T07:53:39.415Z,62.04
2023-04-28T07:54:37.962Z,62.36
2023-04-28T07:55:37.853Z,61.71
2023-04-28T07:56:37.836Z,61.55
2023-04-28T07:57:38.775Z,64.45
2023-04-28T07:58:37.844Z,65.58
2023-04-28T07:59:37.803Z,71.06
2023-04-28T08:00:39.709Z,62.20
2023-04-28T08:01:37.731Z,61.55
2023-04-28T08:02:37.852Z,63.65
2023-04-28T08:03:37.985Z,55.11
2023-04-28T08:04:38.906Z,63.49
2023-04-28T08:05:38.847Z,62.04
2023-04-28T08:06:37.786Z,64.78
2023-04-28T08:07:37.719Z,68.32
2023-04-28T08:08:37.693Z,69.93
2023-04-28T08:09:37.690Z,65.58
2023-04-28T08:10:37.710Z,64.13
2023-04-28T08:11:37.717Z,62.04
2023-04-28T08:12:37.677Z,65.26
2023-04-28T08:13:37.845Z,61.07
2023-04-28T08:14:37.658Z,59.30
2023-04-28T08:15:37.766Z,66.71
2023-04-28T08:16:37.629Z,61.71
2023-04-28T08:17:37.675Z,61.39
2023-04-28T08:18:37.715Z,59.30
2023-04-28T08:19:37.660Z,60.59
2023-04-28T08:20:37.621Z,60.26
2023-04-28T08:21:40.697Z,61.55
2023-04-28T08:22:37.615Z,64.29
2023-04-28T08:23:37.607Z,63.33
2023-04-28T08:24:37.565Z,56.72
2023-04-28T08:25:37.612Z,66.87
2023-04-28T08:26:37.612Z,59.46
2023-04-28T08:27:37.540Z,61.07
2023-04-28T08:28:37.515Z,62.04
2023-04-28T08:29:37.520Z,65.74
2023-04-28T08:30:37.523Z,64.61
2023-04-28T08:31:37.550Z,75.41
2023-04-28T08:32:37.523Z,61.71
2023-04-28T08:33:37.488Z,65.58
2023-04-28T08:34:37.464Z,64.94
2023-04-28T08:35:37.465Z,65.90
2023-04-28T08:36:37.486Z,60.75
2023-04-28T08:37:37.445Z,60.91
2023-04-28T08:38:37.509Z,59.14
2023-04-28T08:39:37.443Z,71.06
2023-04-28T08:40:37.409Z,67.35
2023-04-28T08:41:37.462Z,64.61
2023-04-28T08:42:37.429Z,64.29
2023-04-28T08:43:37.407Z,63.49
2023-04-28T08:44:37.475Z,60.10
2023-04-28T08:45:37.419Z,63.65
2023-04-28T08:46:37.380Z,60.75
2023-04-28T08:47:37.330Z,67.68
2023-04-28T08:48:37.303Z,67.35
2023-04-28T08:49:37.304Z,73.96
2023-04-28T08:50:37.269Z,74.44
2023-04-28T08:51:37.826Z,64.61
2023-04-28T08:52:37.318Z,61.71
2023-04-28T08:53:59.185Z,60.10
2023-04-28T08:54:39.297Z,62.36
2023-04-28T08:55:37.396Z,61.23
2023-04-28T08:56:37.296Z,65.74
2023-04-28T08:57:37.982Z,59.94
2023-04-28T08:58:37.248Z,65.74
2023-04-28T08:59:37.349Z,60.91
2023-04-28T09:00:37.344Z,61.71
2023-04-28T09:01:37.297Z,62.20
2023-04-28T09:02:37.342Z,66.55
2023-04-28T09:03:37.385Z,66.06
2023-04-28T09:04:37.493Z,60.75
2023-04-28T09:05:37.262Z,59.78
2023-04-28T09:06:37.240Z,62.84
2023-04-28T09:07:37.289Z,65.58
2023-04-28T09:08:38.241Z,65.42
2023-04-28T09:09:39.151Z,62.52
2023-04-28T09:10:38.262Z,61.71
2023-04-28T09:11:37.212Z,63.97
2023-04-28T09:12:37.185Z,62.84
2023-04-28T09:13:37.156Z,58.81
2023-04-28T09:14:37.150Z,64.61
2023-04-28T09:15:37.150Z,64.29
2023-04-28T09:16:37.125Z,61.07
2023-04-28T09:17:37.175Z,59.78
2023-04-28T09:18:37.159Z,57.36
2023-04-28T09:19:37.181Z,62.84
2023-04-28T09:20:37.105Z,60.91
2023-04-28T09:21:37.047Z,63.16
2023-04-28T09:22:37.238Z,61.55
2023-04-28T09:23:37.073Z,67.35
2023-04-28T09:24:37.013Z,63.00
2023-04-28T09:25:37.181Z,60.75
2023-04-28T09:26:37.083Z,68.80
2023-04-28T09:27:37.127Z,63.97
2023-04-28T09:28:37.046Z,63.00
2023-04-28T09:29:37.186Z,64.61
2023-04-28T09:30:37.079Z,64.29
2023-04-28T09:31:36.993Z,62.68
2023-04-28T09:32:37.968Z,64.78
2023-04-28T09:33:37.352Z,61.07
2023-04-28T09:34:37.088Z,65.10
2023-04-28T09:35:37.996Z,60.75
2023-04-28T09:36:37.092Z,65.90
2023-04-28T09:37:37.060Z,59.30
2023-04-28T09:38:37.207Z,63.33
2023-04-28T09:39:37.019Z,59.78
2023-04-28T09:40:37.058Z,65.10
2023-04-28T09:41:37.039Z,63.33
2023-04-28T09:42:36.966Z,61.87
2023-04-28T09:43:36.956Z,60.91
2023-04-28T09:44:36.956Z,60.26
2023-04-28T09:45:36.931Z,52.53
2023-04-28T09:46:36.832Z,59.30
2023-04-28T09:47:36.918Z,59.14
2023-04-28T09:48:36.767Z,49.79
2023-04-28T09:49:36.836Z,60.26
2023-04-28T09:50:36.746Z,61.55
2023-04-28T09:51:36.737Z,61.39
2023-04-28T09:52:36.765Z,66.23
2023-04-28T09:53:36.855Z,59.78
2023-04-28T10:06:17.014Z,61.23
2023-04-28T10:07:14.291Z,60.42
2023-04-28T10:08:14.262Z,61.39
2023-04-28T10:09:14.266Z,64.94
2023-04-28T10:10:14.235Z,65.10
2023-04-28T10:11:14.229Z,63.33
2023-04-28T10:12:14.230Z,59.62
2023-04-28T10:13:14.206Z,61.39
2023-04-28T10:14:14.198Z,62.84
2023-04-28T10:15:14.186Z,64.13
2023-04-28T10:16:14.221Z,59.78
2023-04-28T10:17:14.167Z,60.59
2023-04-28T10:18:14.220Z,61.87
2023-04-28T10:19:14.262Z,63.16
2023-04-28T10:20:14.212Z,65.26
2023-04-28T10:21:14.121Z,66.71
2023-04-28T10:22:14.112Z,62.52
2023-04-28T10:23:14.104Z,62.20
2023-04-28T10:24:14.112Z,61.55
2023-04-28T10:25:14.092Z,65.42
2023-04-28T10:26:14.081Z,65.42
2023-04-28T10:27:14.067Z,62.84
2023-04-28T10:28:14.047Z,62.36
2023-04-28T10:29:14.076Z,62.20
2023-04-28T10:30:26.242Z,62.36
2023-04-28T10:31:15.049Z,63.16
2023-04-28T10:32:14.004Z,66.71
2023-04-28T10:33:14.259Z,69.61
2023-04-28T10:34:14.009Z,68.00
2023-04-28T10:35:13.978Z,66.39
2023-04-28T10:45:55.260Z,64.61
2023-04-28T10:46:51.274Z,62.84
2023-04-28T10:47:51.221Z,66.23
2023-04-28T10:48:51.185Z,70.58
2023-04-28T10:49:51.187Z,67.03
2023-04-28T10:50:51.159Z,63.65
2023-04-28T10:51:51.148Z,66.23
2023-04-28T10:52:51.134Z,59.94
2023-04-28T10:53:51.151Z,60.42
2023-04-28T10:54:51.124Z,60.75
2023-04-28T10:55:51.106Z,65.74
2023-04-28T10:56:51.095Z,65.26
2023-04-28T10:57:51.087Z,60.59
2023-04-28T10:58:51.213Z,62.84
2023-04-28T11:00:12.136Z,61.87
2023-04-28T11:00:51.062Z,61.23
2023-04-28T11:01:51.111Z,60.75
2023-04-28T11:02:51.327Z,61.71
2023-04-28T11:46:26.195Z,56.07
2023-04-28T11:47:26.006Z,62.20
2023-04-28T11:48:25.945Z,59.30
2023-04-28T11:49:25.935Z,62.52
2023-04-28T11:50:25.943Z,62.52
2023-04-28T11:51:25.907Z,62.20
2023-04-28T11:52:25.899Z,63.81
2023-04-28T11:53:25.887Z,61.23
2023-04-28T11:54:25.881Z,63.33
2023-04-28T11:55:25.872Z,64.13
2023-04-28T11:56:26.081Z,62.20
2023-04-28T11:57:25.851Z,60.91
2023-04-28T11:58:25.851Z,62.52
2023-04-28T11:59:26.662Z,76.38
2023-04-28T12:00:25.833Z,62.52
2023-04-28T12:01:25.807Z,63.00
2023-04-28T12:02:25.983Z,61.39
2023-04-28T12:03:25.868Z,63.33
2023-04-28T12:04:25.875Z,62.04
2023-04-28T12:05:25.789Z,60.26
2023-04-28T12:06:25.766Z,62.20
2023-04-28T12:07:25.749Z,60.75
2023-04-28T12:08:25.730Z,64.13
2023-04-28T12:09:25.751Z,62.52
2023-04-28T12:10:25.718Z,65.74
2023-04-28T12:11:25.973Z,63.81
2023-04-28T12:12:34.960Z,58.81
2023-04-28T12:13:26.671Z,67.84
2023-04-28T12:14:25.680Z,63.49
2023-04-28T12:15:25.668Z,60.75
2023-04-28T12:16:25.690Z,63.81
2023-04-28T12:17:25.684Z,60.42
2023-04-28T12:18:25.622Z,61.71
2023-04-28T12:19:25.629Z,69.77
2023-04-28T12:20:25.620Z,63.65
2023-04-28T12:21:25.595Z,62.84
2023-04-28T12:22:25.583Z,60.75
2023-04-28T12:23:25.575Z,48.66
2023-04-28T12:24:25.569Z,62.52
2023-04-28T12:25:25.559Z,64.94
2023-04-28T12:26:25.544Z,62.20
2023-04-28T12:27:25.539Z,67.19
2023-04-28T12:28:25.522Z,60.75
2023-04-28T12:29:25.509Z,59.46
2023-04-28T12:30:25.510Z,61.23
2023-04-28T12:31:25.503Z,68.80
2023-04-28T12:32:25.481Z,60.26
2023-04-28T12:33:25.487Z,59.78
2023-04-28T12:34:25.465Z,59.94
2023-04-28T12:35:25.603Z,61.23
2023-04-28T12:36:25.434Z,57.52
2023-04-28T12:37:25.426Z,62.84
2023-04-28T12:38:25.437Z,49.47
2023-04-28T12:39:25.412Z,64.29
2023-04-28T12:40:25.413Z,63.33
2023-04-28T12:41:25.390Z,60.42
2023-04-28T12:42:25.384Z,60.10
2023-04-28T12:43:25.369Z,61.23
2023-04-28T12:44:25.358Z,59.78
2023-04-28T12:45:25.377Z,55.43
2023-04-28T12:46:25.370Z,61.39
2023-04-28T12:47:25.343Z,62.04
2023-04-28T12:48:25.524Z,63.81
2023-04-28T12:49:25.303Z,62.84
2023-04-28T12:50:25.325Z,59.14
2023-04-28T12:51:25.280Z,65.74
2023-04-28T12:52:25.279Z,65.58
2023-04-28T12:53:25.265Z,68.00
2023-04-28T12:54:25.256Z,68.48
2023-04-28T12:55:25.259Z,60.10
2023-04-28T12:56:25.240Z,57.85
2023-04-28T12:57:25.220Z,61.71
2023-04-28T12:58:25.220Z,57.04
2023-04-28T12:59:25.204Z,61.71
2023-04-28T13:00:25.311Z,63.16
2023-04-28T13:01:25.226Z,61.07
2023-04-28T13:02:25.440Z,63.16
2023-04-28T13:03:25.303Z,60.42
2023-04-28T13:04:25.373Z,63.00
2023-04-28T13:05:25.149Z,63.33
2023-04-28T13:06:25.129Z,60.26
2023-04-28T13:07:25.114Z,62.36
2023-04-28T13:08:25.107Z,63.33
2023-04-28T13:09:25.097Z,57.20
2023-04-28T13:10:25.101Z,62.52
2023-04-28T13:11:25.076Z,61.87
2023-04-28T13:12:25.094Z,61.87
2023-04-28T13:13:25.050Z,58.97
2023-04-28T13:14:25.053Z,58.97
2023-04-28T13:15:25.061Z,59.78
2023-04-28T13:16:25.101Z,65.26
2023-04-28T13:17:25.074Z,60.75
2023-04-28T13:18:25.008Z,64.61
2023-04-28T13:19:24.994Z,64.45
2023-04-28T13:20:24.999Z,61.87
2023-04-28T13:21:24.983Z,62.36
2023-04-28T13:22:24.969Z,61.55
2023-04-28T13:23:24.957Z,60.42
2023-04-28T13:24:24.948Z,59.30
2023-04-28T13:25:24.941Z,61.87
2023-04-28T13:26:24.925Z,66.39
2023-04-28T13:27:24.912Z,65.58
2023-04-28T13:28:24.900Z,66.71
2023-04-28T13:29:24.888Z,67.19
2023-04-28T13:30:24.891Z,68.96
2023-04-28T13:31:24.889Z,65.26
2023-04-28T13:32:24.860Z,64.94
2023-04-28T13:33:24.845Z,62.68
2023-04-28T13:34:24.839Z,61.23
2023-04-28T13:35:24.841Z,61.23
2023-04-28T13:36:24.826Z,68.32
2023-04-28T13:37:24.808Z,70.90
2023-04-28T13:38:24.799Z,59.14
2023-04-28T13:39:24.778Z,59.30
2023-04-28T13:40:24.791Z,59.62
2023-04-28T13:41:24.766Z,62.68
2023-04-28T13:42:24.756Z,58.81
2023-04-28T13:43:24.739Z,60.59
2023-04-28T13:44:24.758Z,61.23
2023-04-28T13:45:24.730Z,61.71
2023-04-28T13:46:24.804Z,59.46
2023-04-28T13:47:24.741Z,60.91
2023-04-28T13:48:24.690Z,63.33
2023-04-28T13:49:24.680Z,66.71
2023-04-28T13:50:24.683Z,63.16
2023-04-28T13:51:24.654Z,59.78
2023-04-28T13:52:24.649Z,60.26
2023-04-28T13:53:24.646Z,61.23
2023-04-28T13:54:24.625Z,58.81
2023-04-28T13:55:24.612Z,61.23
2023-04-28T13:56:24.617Z,61.07